createdAt,value
2022-08-18T00:04:49.661Z,75.1
2022-08-18T00:09:57.801Z,76.1
2022-08-18T00:15:01.182Z,76.0
2022-08-18T00:20:07.584Z,76.2
2022-08-18T00:25:15.522Z,75.6
2022-08-18T00:30:21.946Z,75.6
2022-08-18T00:35:29.104Z,76.3
2022-08-18T00:40:37.952Z,78.2
2022-08-18T00:48:29.489Z,79.4
2022-08-18T00:51:11.661Z,78.4
2022-08-18T00:56:18.032Z,77.9
2022-08-18T01:01:04.436Z,80.3
2022-08-18T01:06:06.728Z,78.7
2022-08-18T01:11:14.670Z,79.5
2022-08-18T01:16:25.053Z,78.8
2022-08-18T01:21:27.417Z,81.4
2022-08-18T01:26:33.888Z,79.9
2022-08-18T01:31:54.340Z,79.1
2022-08-18T01:36:48.301Z,78.9
2022-08-18T01:41:54.762Z,78.8
2022-08-18T01:46:51.056Z,78.6
2022-08-18T01:52:33.063Z,79.6
2022-08-18T01:57:15.502Z,78.7
2022-08-18T02:02:23.389Z,78.5
2022-08-18T02:07:34.362Z,78.8
2022-08-18T02:12:36.079Z,78.8
2022-08-18T02:17:42.446Z,79.0
2022-08-18T02:22:50.392Z,78.7
2022-08-18T02:27:56.757Z,78.4
2022-08-18T02:33:03.143Z,78.0
2022-08-18T02:38:09.540Z,78.9
2022-08-18T02:43:17.504Z,78.4
2022-08-18T02:48:27.884Z,79.0
2022-08-18T02:53:31.842Z,78.8
2022-08-18T02:58:38.234Z,78.7
2022-08-18T03:03:44.611Z,78.6
2022-08-18T03:08:50.988Z,78.9
2022-08-18T03:13:58.953Z,79.3
2022-08-18T03:19:05.454Z,78.8
2022-08-18T03:24:11.841Z,78.9
2022-08-18T03:29:18.214Z,78.5
2022-08-18T03:34:24.598Z,77.4
2022-08-18T03:39:30.983Z,79.2
2022-08-18T03:44:37.384Z,78.6
2022-08-18T03:49:47.719Z,78.8
2022-08-18T03:54:54.090Z,77.9
2022-08-18T03:59:56.502Z,78.1
2022-08-18T04:05:02.869Z,79.3
2022-08-18T04:10:16.252Z,78.4
2022-08-18T04:15:15.699Z,79.1
2022-08-18T04:20:26.069Z,79.1
2022-08-18T04:25:33.137Z,79.8
2022-08-18T04:30:24.803Z,80.0
2022-08-18T04:35:41.766Z,79.1
2022-08-18T04:40:49.135Z,78.9
2022-08-18T04:51:01.888Z,78.5
2022-08-18T04:56:08.274Z,78.9
2022-08-18T05:01:38.796Z,78.8
2022-08-18T05:06:25.052Z,78.8
2022-08-18T05:11:31.526Z,80.0
2022-08-18T05:16:33.929Z,79.4
2022-08-18T05:21:40.318Z,79.1
2022-08-18T05:26:50.670Z,80.4
2022-08-18T05:31:54.812Z,79.0
2022-08-18T05:37:01.248Z,79.6
2022-08-18T05:42:07.564Z,81.2
2022-08-18T05:47:13.937Z,79.6
2022-08-18T05:52:21.945Z,79.1
2022-08-18T05:57:32.309Z,79.5
2022-08-18T06:02:34.744Z,79.2
2022-08-18T06:07:41.134Z,78.6
2022-08-18T06:12:51.290Z,78.0
2022-08-18T06:18:01.678Z,77.5
2022-08-18T06:23:29.863Z,77.3
2022-08-18T06:28:12.191Z,77.0
2022-08-18T06:33:18.576Z,77.3
2022-08-18T06:38:28.955Z,78.8
2022-08-18T06:43:35.330Z,77.7
2022-08-18T06:48:37.749Z,77.6
2022-08-18T06:53:44.129Z,78.5
2022-08-18T06:58:53.219Z,78.8
2022-08-18T07:03:56.996Z,78.5
2022-08-18T07:09:03.377Z,77.9
2022-08-18T07:14:16.479Z,77.9
2022-08-18T07:19:16.132Z,77.3
2022-08-18T07:24:25.382Z,77.6
2022-08-18T07:29:28.870Z,77.8
2022-08-18T07:34:36.795Z,77.8
2022-08-18T07:39:44.095Z,80.9
2022-08-18T07:45:15.184Z,79.5
2022-08-18T07:50:55.077Z,80.1
2022-08-18T07:55:03.883Z,81.4
2022-08-18T08:00:10.464Z,81.4
2022-08-18T08:05:16.744Z,79.5
2022-08-18T08:11:01.773Z,78.8
2022-08-18T08:16:09.178Z,80.0
2022-08-18T08:21:19.586Z,80.1
2022-08-18T08:31:52.395Z,78.2
2022-08-18T08:36:24.708Z,78.7
2022-08-18T08:41:31.096Z,79.9
2022-08-18T08:51:43.909Z,79.2
2022-08-18T08:57:00.481Z,79.4
2022-08-18T09:03:18.958Z,79.5
2022-08-18T09:07:13.197Z,79.1
2022-08-18T09:12:18.578Z,80.0
2022-08-18T09:17:15.959Z,79.9
2022-08-18T09:22:32.393Z,78.7
2022-08-18T09:28:00.138Z,78.5
2022-08-18T09:32:45.193Z,84.1
2022-08-18T09:37:55.634Z,85.4
2022-08-18T09:47:54.407Z,83.3
2022-08-18T09:54:21.177Z,82.9
2022-08-18T09:59:27.329Z,81.6
2022-08-18T10:04:33.772Z,81.4
2022-08-18T10:09:40.657Z,80.3
2022-08-18T10:14:46.536Z,79.6
2022-08-18T10:19:52.905Z,78.7
2022-08-18T10:25:09.207Z,78.6
2022-08-18T10:30:05.765Z,78.3
2022-08-18T10:35:02.301Z,78.3
2022-08-18T10:40:08.720Z,78.4
2022-08-18T10:46:22.982Z,78.5
2022-08-18T10:55:57.891Z,78.5
2022-08-18T11:00:44.211Z,78.4
2022-08-18T11:05:40.578Z,79.0
2022-08-18T11:16:03.362Z,77.7
2022-08-18T11:21:13.680Z,75.9
2022-08-18T11:31:24.166Z,73.3
2022-08-18T11:41:48.222Z,72.2
2022-08-18T11:51:49.704Z,70.2
2022-08-18T11:56:56.110Z,69.0
2022-08-18T12:02:02.498Z,68.5
2022-08-18T12:07:12.948Z,67.7
2022-08-18T12:17:55.831Z,66.9
2022-08-18T12:23:27.251Z,66.8
2022-08-18T12:27:59.745Z,66.6
2022-08-18T12:33:16.160Z,66.2
2022-08-18T12:38:22.337Z,66.1
2022-08-18T12:43:32.276Z,65.6
2022-08-18T12:48:35.097Z,65.7
2022-08-18T12:53:58.144Z,65.6
2022-08-18T12:58:47.926Z,65.5
2022-08-18T13:03:44.384Z,65.5
2022-08-18T13:09:00.790Z,65.5
2022-08-18T13:13:57.365Z,65.1
2022-08-18T13:19:13.552Z,65.5
2022-08-18T13:24:21.936Z,65.5
2022-08-18T13:29:26.315Z,65.1
2022-08-18T13:34:32.676Z,65.2
2022-08-18T13:39:39.346Z,65.2
2022-08-18T13:50:16.086Z,65.6
2022-08-18T13:54:58.419Z,65.9
2022-08-18T14:00:29.623Z,66.0
2022-08-18T14:05:11.333Z,66.2
2022-08-18T14:15:24.107Z,66.4
2022-08-18T14:20:30.488Z,66.5
2022-08-18T14:25:36.862Z,66.8
2022-08-18T14:30:44.275Z,67.2
2022-08-18T14:36:05.764Z,67.3
2022-08-18T14:41:00.034Z,67.5
2022-08-18T14:51:07.863Z,67.7
2022-08-18T15:01:21.652Z,67.6
2022-08-18T15:11:24.474Z,67.7
2022-08-18T15:16:40.873Z,67.8
2022-08-18T15:21:47.252Z,67.7
2022-08-18T15:26:57.453Z,67.6
2022-08-18T15:31:50.493Z,67.6
2022-08-18T15:37:09.530Z,67.6
2022-08-18T15:42:12.969Z,67.7
2022-08-18T15:47:20.707Z,67.7
2022-08-18T15:52:25.986Z,67.8
2022-08-18T15:57:39.116Z,67.9
2022-08-18T16:02:38.919Z,67.9
2022-08-18T16:07:45.228Z,67.9
2022-08-18T16:14:06.780Z,67.9
2022-08-18T16:18:03.275Z,67.9
2022-08-18T16:23:09.648Z,67.8
2022-08-18T16:28:53.112Z,67.9
2022-08-18T16:34:20.535Z,68.0
2022-08-18T16:39:06.866Z,68.1
2022-08-18T16:44:13.369Z,68.3
2022-08-18T16:49:09.737Z,69.0
2022-08-18T16:54:25.129Z,69.0
2022-08-18T16:59:32.539Z,68.7
2022-08-18T17:04:58.975Z,69.0
2022-08-18T17:09:45.408Z,68.6
2022-08-18T17:14:52.236Z,68.9
2022-08-18T17:19:58.174Z,69.4
2022-08-18T17:25:04.653Z,69.3
2022-08-18T17:30:01.028Z,69.4
2022-08-18T17:35:17.424Z,69.1
2022-08-18T17:40:23.797Z,69.0
2022-08-18T17:45:30.176Z,69.0
2022-08-18T17:50:36.593Z,68.9
2022-08-18T17:57:15.149Z,69.1
2022-08-18T18:00:49.330Z,69.1
2022-08-18T18:06:15.751Z,69.3
2022-08-18T18:11:05.115Z,69.2
2022-08-18T18:16:07.474Z,69.6
2022-08-18T18:22:00.937Z,69.5
2022-08-18T18:27:14.486Z,70.0
2022-08-18T18:31:32.792Z,69.8
2022-08-18T18:37:23.266Z,70.1
2022-08-18T18:41:45.675Z,70.5
2022-08-18T18:46:52.087Z,70.5
2022-08-18T18:51:58.464Z,70.9
2022-08-18T18:57:04.854Z,71.1
2022-08-18T19:02:13.599Z,71.3
2022-08-18T19:07:41.716Z,71.5
2022-08-18T19:12:24.063Z,71.7
2022-08-18T19:17:30.453Z,72.0
2022-08-18T19:22:36.832Z,72.1
2022-08-18T19:28:07.490Z,72.3
2022-08-18T19:38:20.244Z,72.5
2022-08-18T19:43:02.613Z,72.9
2022-08-18T19:48:09.007Z,73.1
2022-08-18T19:53:15.490Z,73.2
2022-08-18T19:58:21.882Z,73.8
2022-08-18T20:08:24.613Z,73.6
2022-08-18T20:18:37.376Z,74.2
2022-08-18T20:23:43.873Z,74.2
2022-08-18T20:29:00.356Z,74.3
2022-08-18T20:34:09.203Z,74.5
2022-08-18T20:39:13.313Z,74.7
2022-08-18T20:44:28.937Z,74.6
2022-08-18T20:49:26.091Z,74.9
2022-08-18T20:54:32.474Z,75.0
2022-08-18T20:59:38.904Z,75.0
2022-08-18T21:05:05.299Z,74.9
2022-08-18T21:09:51.646Z,75.0
2022-08-18T21:14:58.024Z,75.1
2022-08-18T21:20:04.408Z,75.2
2022-08-18T21:25:34.845Z,75.2
2022-08-18T21:30:17.296Z,75.3
2022-08-18T21:35:23.783Z,75.4
2022-08-18T21:40:54.212Z,75.4
2022-08-18T21:45:36.538Z,75.4
2022-08-18T21:50:42.927Z,75.5
2022-08-18T21:55:49.311Z,75.7
2022-08-18T22:00:55.829Z,75.5
2022-08-18T22:06:02.191Z,75.8
2022-08-18T22:11:10.145Z,76.0
2022-08-18T22:16:40.583Z,76.0
2022-08-18T22:21:22.915Z,76.0
2022-08-18T22:37:06.105Z,76.5
2022-08-18T22:52:21.380Z,76.5
2022-08-18T22:57:31.844Z,76.8
2022-08-18T23:07:20.652Z,76.8
2022-08-18T23:13:12.129Z,76.9
2022-08-18T23:18:19.539Z,76.9
2022-08-18T23:23:49.945Z,77.1
2022-08-18T23:28:22.289Z,77.0
2022-08-18T23:33:38.744Z,77.1
2022-08-18T23:38:45.232Z,77.3
2022-08-18T23:48:57.988Z,77.4
2022-08-18T23:53:54.353Z,77.4
2022-08-18T23:59:10.907Z,77.6
